createdAt,value
2022-10-06T00:04:09.976Z,100.00
2022-10-06T00:09:12.936Z,100.00
2022-10-06T00:14:15.851Z,100.00
2022-10-06T00:19:18.741Z,100.00
2022-10-06T00:24:21.646Z,100.00
2022-10-06T00:29:24.663Z,100.00
2022-10-06T00:34:27.659Z,100.00
2022-10-06T00:39:30.563Z,100.00
2022-10-06T00:44:33.363Z,100.00
2022-10-06T00:49:38.250Z,100.00
2022-10-06T00:54:41.733Z,100.00
2022-10-06T00:59:44.737Z,100.00
2022-10-06T01:04:58.304Z,100.00
2022-10-06T01:10:01.097Z,100.00
2022-10-06T01:15:05.086Z,100.00
2022-10-06T01:20:15.385Z,100.00
2022-10-06T01:25:19.530Z,100.00
2022-10-06T01:30:33.395Z,100.00
2022-10-06T01:35:36.298Z,100.00
2022-10-06T01:40:39.102Z,100.00
2022-10-06T01:45:42.003Z,100.00
2022-10-06T01:50:44.911Z,100.00
2022-10-06T01:55:48.016Z,100.00
2022-10-06T02:00:51.171Z,100.00
2022-10-06T02:05:57.333Z,100.00
2022-10-06T02:11:05.844Z,100.00
2022-10-06T02:16:09.616Z,100.00
2022-10-06T02:21:18.573Z,100.00
2022-10-06T02:26:21.516Z,100.00
2022-10-06T02:31:24.559Z,100.00
2022-10-06T02:36:27.840Z,100.00
2022-10-06T02:41:31.256Z,100.00
2022-10-06T02:46:34.342Z,100.00
2022-10-06T02:51:37.374Z,100.00
2022-10-06T02:56:40.273Z,100.00
2022-10-06T03:01:43.316Z,100.00
2022-10-06T03:06:46.488Z,100.00
2022-10-06T03:11:49.494Z,100.00
2022-10-06T03:16:52.816Z,100.00
2022-10-06T03:21:55.602Z,100.00
2022-10-06T03:26:58.616Z,100.00
2022-10-06T03:32:01.379Z,100.00
2022-10-06T03:37:04.326Z,100.00
2022-10-06T03:42:07.226Z,100.00
2022-10-06T03:47:14.574Z,100.00
2022-10-06T03:52:25.064Z,100.00
2022-10-06T03:57:28.947Z,100.00
2022-10-06T04:02:31.886Z,100.00
2022-10-06T04:07:34.854Z,100.00
2022-10-06T04:12:37.760Z,100.00
2022-10-06T04:17:40.662Z,100.00
2022-10-06T04:22:43.576Z,100.00
2022-10-06T04:27:46.469Z,100.00
2022-10-06T04:32:49.274Z,100.00
2022-10-06T04:37:53.095Z,100.00
2022-10-06T04:42:56.468Z,100.00
2022-10-06T04:47:59.320Z,100.00
2022-10-06T04:53:02.218Z,100.00
2022-10-06T04:58:05.120Z,100.00
2022-10-06T05:03:08.026Z,100.00
2022-10-06T05:08:10.940Z,100.00
2022-10-06T05:13:14.472Z,100.00
2022-10-06T05:18:17.352Z,100.00
2022-10-06T05:23:24.358Z,100.00
2022-10-06T05:28:30.305Z,100.00
2022-10-06T05:33:35.696Z,100.00
2022-10-06T05:38:39.208Z,100.00
2022-10-06T05:43:42.829Z,100.00
2022-10-06T05:49:10.526Z,100.00
2022-10-06T05:54:14.545Z,100.00
2022-10-06T05:59:17.462Z,100.00
2022-10-06T06:04:20.666Z,100.00
2022-10-06T06:09:23.766Z,100.00
2022-10-06T06:14:45.411Z,100.00
2022-10-06T06:19:48.556Z,100.00
2022-10-06T06:24:51.381Z,100.00
2022-10-06T06:29:54.326Z,100.00
2022-10-06T06:34:57.546Z,100.00
2022-10-06T06:40:00.449Z,100.00
2022-10-06T06:45:03.550Z,100.00
2022-10-06T06:50:10.541Z,100.00
2022-10-06T06:55:15.257Z,97.64
2022-10-06T07:00:18.304Z,90.58
2022-10-06T07:05:21.516Z,81.71
2022-10-06T07:10:27.799Z,73.63
2022-10-06T07:15:52.599Z,70.17
2022-10-06T07:21:14.466Z,66.31
2022-10-06T07:26:20.336Z,65.18
2022-10-06T07:31:23.189Z,62.23
2022-10-06T07:36:26.146Z,60.34
2022-10-06T07:41:31.559Z,59.40
2022-10-06T07:46:34.375Z,58.67
2022-10-06T07:51:37.321Z,59.78
2022-10-06T07:56:40.325Z,61.17
2022-10-06T08:01:46.359Z,63.70
2022-10-06T08:06:49.714Z,66.36
2022-10-06T08:11:53.128Z,66.80
2022-10-06T08:16:56.034Z,66.02
2022-10-06T08:22:02.436Z,67.41
2022-10-06T08:27:09.930Z,68.61
2022-10-06T08:32:12.834Z,69.60
2022-10-06T08:37:20.312Z,71.19
2022-10-06T08:42:33.362Z,71.39
2022-10-06T08:47:37.181Z,72.72
2022-10-06T08:52:52.419Z,73.71
2022-10-06T08:58:13.953Z,73.82
2022-10-06T09:03:24.128Z,74.23
2022-10-06T09:08:58.667Z,73.39
2022-10-06T09:14:12.941Z,73.19
2022-10-06T09:19:24.796Z,73.82
2022-10-06T09:24:47.580Z,72.55
2022-10-06T09:29:51.677Z,73.33
2022-10-06T09:34:57.502Z,72.73
2022-10-06T09:40:00.430Z,71.47
2022-10-06T09:45:06.768Z,71.74
2022-10-06T09:50:12.398Z,71.60
2022-10-06T09:55:19.387Z,72.14
2022-10-06T10:00:48.242Z,70.24
2022-10-06T10:05:55.052Z,69.90
2022-10-06T10:11:28.600Z,69.75
2022-10-06T10:16:35.753Z,70.02
2022-10-06T10:21:41.386Z,70.84
2022-10-06T10:26:55.349Z,70.54
2022-10-06T10:32:13.012Z,68.88
2022-10-06T10:37:37.407Z,67.73
2022-10-06T10:42:45.672Z,67.20
2022-10-06T10:47:49.565Z,67.01
2022-10-06T10:52:57.401Z,66.76
2022-10-06T10:58:11.960Z,66.39
2022-10-06T11:03:14.758Z,63.69
2022-10-06T11:08:29.954Z,63.73
2022-10-06T11:13:38.488Z,63.64
2022-10-06T11:19:20.816Z,64.48
2022-10-06T11:24:31.990Z,65.09
2022-10-06T11:29:40.859Z,66.30
2022-10-06T11:34:48.346Z,66.99
2022-10-06T11:39:58.714Z,67.38
2022-10-06T11:45:14.043Z,67.09
2022-10-06T11:50:32.208Z,64.80
2022-10-06T11:55:35.112Z,63.03
2022-10-06T12:00:38.016Z,63.54
2022-10-06T12:05:57.264Z,62.66
2022-10-06T12:11:03.071Z,62.64
2022-10-06T12:22:00.041Z,62.52
2022-10-06T12:27:24.987Z,59.88
2022-10-06T12:32:53.712Z,59.03
2022-10-06T12:38:00.645Z,58.49
2022-10-06T12:43:18.361Z,59.52
2022-10-06T12:48:23.927Z,58.82
2022-10-06T12:53:36.333Z,59.58
2022-10-06T12:58:39.903Z,58.42
2022-10-06T13:03:47.999Z,58.02
2022-10-06T13:09:14.155Z,57.80
2022-10-06T13:14:17.458Z,56.38
2022-10-06T13:19:28.442Z,57.92
2022-10-06T13:24:31.481Z,58.36
2022-10-06T13:29:34.466Z,57.73
2022-10-06T13:34:43.433Z,56.54
2022-10-06T13:39:46.796Z,55.97
2022-10-06T13:45:03.144Z,53.60
2022-10-06T13:50:07.829Z,54.09
2022-10-06T13:55:27.187Z,54.24
2022-10-06T14:00:32.380Z,53.41
2022-10-06T14:05:41.917Z,54.17
2022-10-06T14:10:52.607Z,53.72
2022-10-06T14:16:00.671Z,53.62
2022-10-06T14:21:19.282Z,54.23
2022-10-06T14:26:31.313Z,55.40
2022-10-06T14:31:35.609Z,55.82
2022-10-06T14:36:38.519Z,55.84
2022-10-06T14:41:42.072Z,55.60
2022-10-06T14:46:49.377Z,55.03
2022-10-06T14:51:56.471Z,55.84
2022-10-06T14:56:59.476Z,56.82
2022-10-06T15:02:03.304Z,57.71
2022-10-06T15:07:25.151Z,58.28
2022-10-06T15:12:33.114Z,59.15
2022-10-06T15:17:37.925Z,60.24
2022-10-06T15:22:41.972Z,60.89
2022-10-06T15:28:03.541Z,61.58
2022-10-06T15:33:06.910Z,62.21
2022-10-06T15:38:09.924Z,62.30
2022-10-06T15:43:12.822Z,62.74
2022-10-06T15:48:15.725Z,63.24
2022-10-06T15:53:18.941Z,64.02
2022-10-06T15:58:22.795Z,64.89
2022-10-06T16:03:40.971Z,65.51
2022-10-06T16:08:44.339Z,66.51
2022-10-06T16:13:52.054Z,67.31
2022-10-06T16:18:55.165Z,67.90
2022-10-06T16:24:00.750Z,68.61
2022-10-06T16:29:04.561Z,69.04
2022-10-06T16:34:08.072Z,69.85
2022-10-06T16:39:16.067Z,70.83
2022-10-06T16:44:19.207Z,71.60
2022-10-06T16:49:24.654Z,72.28
2022-10-06T16:54:30.649Z,72.93
2022-10-06T16:59:33.553Z,73.76
2022-10-06T17:04:37.070Z,74.43
2022-10-06T17:09:55.845Z,75.10
2022-10-06T17:15:02.849Z,76.09
2022-10-06T17:20:06.391Z,77.18
2022-10-06T17:25:09.783Z,77.83
2022-10-06T17:30:15.043Z,78.36
2022-10-06T17:35:19.112Z,79.02
2022-10-06T17:40:21.978Z,79.53
2022-10-06T17:45:25.958Z,80.07
2022-10-06T17:50:29.013Z,79.94
2022-10-06T17:55:31.916Z,80.39
2022-10-06T18:00:34.927Z,80.80
2022-10-06T18:05:39.262Z,81.27
2022-10-06T18:11:35.625Z,81.79
2022-10-06T18:16:39.728Z,82.45
2022-10-06T18:21:44.710Z,83.18
2022-10-06T18:26:50.026Z,84.08
2022-10-06T18:31:53.896Z,84.63
2022-10-06T18:36:56.894Z,85.25
2022-10-06T18:42:03.043Z,86.14
2022-10-06T18:47:24.618Z,86.31
2022-10-06T18:52:27.623Z,87.11
2022-10-06T18:57:30.531Z,87.71
2022-10-06T19:02:33.346Z,88.34
2022-10-06T19:07:36.242Z,88.67
2022-10-06T19:12:39.243Z,89.36
2022-10-06T19:17:45.830Z,89.81
2022-10-06T19:22:48.636Z,90.52
2022-10-06T19:27:54.509Z,91.09
2022-10-06T19:32:57.438Z,91.41
2022-10-06T19:38:00.318Z,92.11
2022-10-06T19:43:03.258Z,92.17
2022-10-06T19:48:06.122Z,92.44
2022-10-06T19:53:09.030Z,92.99
2022-10-06T19:58:11.827Z,93.31
2022-10-06T20:03:14.561Z,93.97
2022-10-06T20:08:17.891Z,94.04
2022-10-06T20:13:20.645Z,94.47
2022-10-06T20:18:25.593Z,94.75
2022-10-06T20:23:28.397Z,94.80
2022-10-06T20:28:33.875Z,95.03
2022-10-06T20:33:36.868Z,95.14
2022-10-06T20:38:59.329Z,95.31
2022-10-06T20:44:04.075Z,95.05
2022-10-06T20:49:09.644Z,95.34
2022-10-06T20:54:14.121Z,95.51
2022-10-06T20:59:18.425Z,95.87
2022-10-06T21:04:22.050Z,96.42
2022-10-06T21:09:25.071Z,96.47
2022-10-06T21:14:28.373Z,96.65
2022-10-06T21:19:31.789Z,96.29
2022-10-06T21:24:34.811Z,96.55
2022-10-06T21:29:38.206Z,97.16
2022-10-06T21:34:41.212Z,97.53
2022-10-06T21:39:44.118Z,97.70
2022-10-06T21:44:47.121Z,97.81
2022-10-06T21:49:50.025Z,97.84
2022-10-06T21:54:53.058Z,97.98
2022-10-06T21:59:55.936Z,98.42
2022-10-06T22:04:59.148Z,98.67
2022-10-06T22:10:02.271Z,98.85
2022-10-06T22:15:05.879Z,98.92
2022-10-06T22:20:09.577Z,99.35
2022-10-06T22:25:12.504Z,99.49
2022-10-06T22:30:15.407Z,99.60
2022-10-06T22:35:18.314Z,99.95
2022-10-06T22:40:21.214Z,100.00
2022-10-06T22:45:24.227Z,100.00
2022-10-06T22:50:27.132Z,100.00
2022-10-06T22:55:30.028Z,100.00
2022-10-06T23:00:33.123Z,100.00
2022-10-06T23:05:37.303Z,100.00
2022-10-06T23:10:40.175Z,100.00
2022-10-06T23:15:43.810Z,100.00
2022-10-06T23:20:46.700Z,100.00
2022-10-06T23:25:49.606Z,100.00
2022-10-06T23:30:52.507Z,100.00
2022-10-06T23:35:57.871Z,100.00
2022-10-06T23:41:00.978Z,100.00
2022-10-06T23:46:04.528Z,100.00
2022-10-06T23:51:13.520Z,100.00
2022-10-06T23:56:16.653Z,100.00
